createdAt,value
2022-08-11T00:01:21.086Z,42.14
2022-08-11T00:03:53.830Z,42.50
2022-08-11T00:06:33.636Z,42.80
2022-08-11T00:09:07.054Z,43.06
2022-08-11T00:11:43.816Z,42.76
2022-08-11T00:14:18.887Z,42.70
2022-08-11T00:16:55.548Z,42.84
2022-08-11T00:20:12.051Z,43.72
2022-08-11T00:22:12.182Z,45.15
2022-08-11T00:24:53.523Z,43.61
2022-08-11T00:27:37.153Z,43.59
2022-08-11T00:30:13.461Z,43.52
2022-08-11T00:32:44.177Z,43.75
2022-08-11T00:35:54.744Z,42.85
2022-08-11T00:38:06.853Z,43.33
2022-08-11T00:40:45.363Z,43.39
2022-08-11T00:43:40.980Z,43.47
2022-08-11T00:46:25.820Z,43.53
2022-08-11T00:49:16.257Z,43.75
2022-08-11T00:52:06.389Z,43.91
2022-08-11T00:54:38.853Z,43.81
2022-08-11T00:57:37.354Z,44.37
2022-08-11T01:00:16.631Z,44.83
2022-08-11T01:03:20.328Z,44.79
2022-08-11T01:06:14.372Z,45.44
2022-08-11T01:09:06.002Z,45.12
2022-08-11T01:11:35.519Z,45.17
2022-08-11T01:14:36.027Z,44.98
2022-08-11T01:17:26.861Z,45.02
2022-08-11T01:20:45.645Z,45.67
2022-08-11T01:23:09.005Z,49.26
2022-08-11T01:26:02.269Z,47.25
2022-08-11T01:28:55.757Z,46.66
2022-08-11T01:31:28.406Z,47.25
2022-08-11T01:34:13.492Z,46.71
2022-08-11T01:36:39.929Z,46.42
2022-08-11T01:39:33.304Z,46.38
2022-08-11T01:42:35.519Z,46.99
2022-08-11T01:45:31.099Z,48.53
2022-08-11T01:48:09.672Z,47.49
2022-08-11T01:51:16.875Z,46.98
2022-08-11T01:54:05.417Z,47.01
2022-08-11T01:57:09.793Z,47.18
2022-08-11T01:59:48.729Z,47.29
2022-08-11T02:02:47.419Z,47.25
2022-08-11T02:05:51.981Z,47.57
2022-08-11T02:08:33.296Z,48.11
2022-08-11T02:11:31.530Z,48.81
2022-08-11T02:14:13.451Z,48.84
2022-08-11T02:16:57.917Z,48.39
2022-08-11T02:20:04.907Z,48.30
2022-08-11T02:23:58.629Z,48.36
2022-08-11T02:26:50.715Z,48.33
2022-08-11T02:29:33.108Z,49.56
2022-08-11T02:32:45.713Z,49.19
2022-08-11T02:35:12.452Z,49.70
2022-08-11T02:37:53.792Z,49.46
2022-08-11T02:40:38.613Z,49.39
2022-08-11T02:43:18.090Z,49.63
2022-08-11T02:46:05.863Z,49.34
2022-08-11T02:49:06.145Z,49.63
2022-08-11T02:51:33.553Z,49.59
2022-08-11T02:54:21.314Z,49.42
2022-08-11T02:57:11.258Z,49.09
2022-08-11T03:00:00.442Z,50.21
2022-08-11T03:02:32.695Z,51.62
2022-08-11T03:05:16.978Z,52.09
2022-08-11T03:08:02.204Z,52.69
2022-08-11T03:10:36.971Z,54.06
2022-08-11T03:13:34.037Z,53.96
2022-08-11T03:16:37.337Z,53.12
2022-08-11T03:19:31.520Z,53.66
2022-08-11T03:22:19.352Z,52.40
2022-08-11T03:24:54.731Z,53.26
2022-08-11T03:27:30.737Z,53.75
2022-08-11T03:30:06.277Z,53.11
2022-08-11T03:32:41.739Z,52.17
2022-08-11T03:35:11.486Z,53.21
2022-08-11T03:38:06.572Z,55.00
2022-08-11T03:41:04.941Z,54.95
2022-08-11T03:44:19.115Z,54.70
2022-08-11T03:47:10.923Z,56.05
2022-08-11T03:50:02.064Z,54.68
2022-08-11T03:52:49.218Z,55.62
2022-08-11T03:55:44.759Z,53.44
2022-08-11T03:58:17.351Z,52.04
2022-08-11T04:01:17.886Z,53.25
2022-08-11T04:04:23.513Z,55.78
2022-08-11T04:07:12.013Z,56.66
2022-08-11T04:10:25.534Z,55.16
2022-08-11T04:13:06.829Z,54.46
2022-08-11T04:16:11.656Z,55.45
2022-08-11T04:18:44.832Z,56.47
2022-08-11T04:21:48.172Z,56.28
2022-08-11T04:24:39.986Z,55.85
2022-08-11T04:27:36.752Z,55.61
2022-08-11T04:30:12.323Z,53.89
2022-08-11T04:33:03.122Z,55.10
2022-08-11T04:35:47.324Z,55.56
2022-08-11T04:38:44.418Z,55.05
2022-08-11T04:42:04.175Z,55.96
2022-08-11T04:45:01.428Z,55.71
2022-08-11T04:48:10.293Z,54.90
2022-08-11T04:51:16.842Z,55.68
2022-08-11T04:54:53.727Z,55.06
2022-08-11T04:58:00.804Z,56.18
2022-08-11T05:00:56.591Z,54.34
2022-08-11T05:03:43.154Z,54.85
2022-08-11T05:06:09.583Z,54.17
2022-08-11T05:09:23.563Z,54.10
2022-08-11T05:12:09.928Z,55.93
2022-08-11T05:15:06.382Z,55.91
2022-08-11T05:18:19.294Z,55.70
2022-08-11T05:21:14.281Z,53.65
2022-08-11T05:24:04.646Z,54.04
2022-08-11T05:27:12.851Z,56.24
2022-08-11T05:30:06.146Z,56.37
2022-08-11T05:33:01.383Z,55.70
2022-08-11T05:36:00.537Z,53.34
2022-08-11T05:38:51.716Z,55.13
2022-08-11T05:41:43.346Z,51.69
2022-08-11T05:44:35.520Z,51.38
2022-08-11T05:47:20.837Z,51.58
2022-08-11T05:50:09.112Z,54.51
2022-08-11T05:53:05.146Z,54.17
2022-08-11T05:56:03.093Z,51.56
2022-08-11T05:58:42.959Z,52.48
2022-08-11T06:01:12.975Z,51.87
2022-08-11T06:04:03.578Z,53.93
2022-08-11T06:06:31.147Z,52.65
2022-08-11T06:08:59.180Z,51.34
2022-08-11T06:11:43.779Z,53.07
2022-08-11T06:14:12.049Z,49.09
2022-08-11T06:19:07.061Z,47.88
2022-08-11T06:21:36.065Z,46.63
2022-08-11T06:24:12.533Z,46.12
2022-08-11T06:27:01.764Z,46.34
2022-08-11T06:29:38.230Z,44.88
2022-08-11T06:32:15.639Z,45.61
2022-08-11T06:35:03.960Z,45.50
2022-08-11T06:37:45.340Z,46.85
2022-08-11T06:40:25.691Z,43.85
2022-08-11T06:43:02.240Z,43.99
2022-08-11T06:45:48.560Z,42.01
2022-08-11T06:48:21.312Z,43.72
2022-08-11T06:51:14.260Z,43.17
2022-08-11T06:54:03.791Z,45.10
2022-08-11T06:57:26.321Z,44.76
2022-08-11T07:00:03.776Z,44.70
2022-08-11T07:02:48.500Z,43.36
2022-08-11T07:05:24.207Z,43.61
2022-08-11T07:08:46.487Z,43.62
2022-08-11T07:12:09.773Z,42.05
2022-08-11T07:15:00.366Z,41.02
2022-08-11T07:17:29.440Z,39.98
2022-08-11T07:20:18.086Z,38.65
2022-08-11T07:23:20.504Z,37.90
2022-08-11T07:26:11.232Z,36.76
2022-08-11T07:28:58.953Z,36.39
2022-08-11T07:31:29.203Z,38.04
2022-08-11T07:34:21.714Z,38.87
2022-08-11T07:37:00.146Z,37.79
2022-08-11T07:39:31.729Z,40.56
2022-08-11T07:42:00.179Z,40.88
2022-08-11T07:44:35.144Z,39.37
2022-08-11T07:47:21.666Z,37.33
2022-08-11T07:50:08.966Z,35.79
2022-08-11T07:52:38.108Z,37.56
2022-08-11T07:55:13.967Z,38.15
2022-08-11T07:58:15.932Z,36.56
2022-08-11T08:01:15.139Z,35.67
2022-08-11T08:04:06.719Z,35.54
2022-08-11T08:06:55.075Z,34.62
2022-08-11T08:09:40.919Z,34.50
2022-08-11T08:12:27.785Z,34.94
2022-08-11T08:15:15.248Z,32.94
2022-08-11T08:18:09.548Z,33.52
2022-08-11T08:20:47.273Z,35.89
2022-08-11T08:23:14.563Z,34.10
2022-08-11T08:25:43.391Z,32.62
2022-08-11T08:28:15.552Z,35.80
2022-08-11T08:30:56.135Z,35.18
2022-08-11T08:33:28.564Z,35.03
2022-08-11T08:36:16.847Z,35.98
2022-08-11T08:38:48.533Z,35.35
2022-08-11T08:41:29.104Z,34.20
2022-08-11T08:44:34.786Z,34.71
2022-08-11T08:46:59.146Z,34.55
2022-08-11T08:49:40.082Z,32.97
2022-08-11T08:52:26.273Z,32.75
2022-08-11T08:55:01.613Z,32.50
2022-08-11T08:57:32.027Z,31.63
2022-08-11T09:00:07.653Z,30.84
2022-08-11T09:02:36.504Z,31.28
2022-08-11T09:05:04.930Z,30.96
2022-08-11T09:07:39.585Z,29.41
2022-08-11T09:10:08.372Z,30.97
2022-08-11T09:12:38.833Z,31.70
2022-08-11T09:15:14.038Z,31.66
2022-08-11T09:17:49.215Z,31.12
2022-08-11T09:20:22.551Z,31.10
2022-08-11T09:24:06.459Z,31.54
2022-08-11T09:26:17.882Z,30.25
2022-08-11T09:28:46.286Z,29.38
2022-08-11T09:31:14.728Z,29.58
2022-08-11T09:33:43.785Z,29.64
2022-08-11T09:36:31.331Z,29.46
2022-08-11T09:39:18.776Z,28.00
2022-08-11T09:42:00.730Z,27.34
2022-08-11T09:44:49.517Z,27.40
2022-08-11T09:47:38.044Z,25.57
2022-08-11T09:50:06.083Z,26.04
2022-08-11T09:52:37.769Z,27.72
2022-08-11T09:55:10.967Z,28.61
2022-08-11T09:58:03.491Z,27.45
2022-08-11T10:00:32.789Z,26.85
2022-08-11T10:03:02.651Z,26.30
2022-08-11T10:05:48.142Z,25.45
2022-08-11T10:08:18.982Z,25.60
2022-08-11T10:10:47.837Z,26.08
2022-08-11T10:14:31.429Z,25.37
2022-08-11T10:16:15.690Z,27.68
2022-08-11T10:18:52.118Z,26.77
2022-08-11T10:21:25.078Z,25.24
2022-08-11T10:27:02.735Z,24.99
2022-08-11T10:29:55.281Z,24.85
2022-08-11T10:32:57.571Z,25.94
2022-08-11T10:35:28.223Z,26.08
2022-08-11T10:38:08.876Z,26.86
2022-08-11T10:40:40.728Z,25.72
2022-08-11T10:43:13.161Z,24.44
2022-08-11T10:46:00.709Z,24.75
2022-08-11T10:48:29.591Z,24.31
2022-08-11T10:51:15.288Z,24.51
2022-08-11T10:54:11.438Z,25.49
2022-08-11T10:56:58.707Z,25.15
2022-08-11T10:59:28.069Z,25.37
2022-08-11T11:01:55.396Z,24.31
2022-08-11T11:04:34.109Z,24.74
2022-08-11T11:07:16.493Z,24.11
2022-08-11T11:09:51.103Z,24.09
2022-08-11T11:12:46.318Z,24.65
2022-08-11T11:15:35.070Z,24.50
2022-08-11T11:18:12.004Z,25.38
2022-08-11T11:20:47.329Z,24.57
2022-08-11T11:23:23.106Z,25.05
2022-08-11T11:26:16.708Z,25.03
2022-08-11T11:29:16.167Z,25.08
2022-08-11T11:32:10.559Z,25.51
2022-08-11T11:35:03.021Z,24.58
2022-08-11T11:37:33.129Z,24.02
2022-08-11T11:40:01.306Z,24.01
2022-08-11T11:42:28.813Z,24.47
2022-08-11T11:44:56.771Z,24.84
2022-08-11T11:47:25.623Z,23.46
2022-08-11T11:49:54.237Z,22.88
2022-08-11T11:52:22.181Z,23.55
2022-08-11T11:54:53.330Z,23.53
2022-08-11T11:57:40.366Z,23.82
2022-08-11T12:00:33.817Z,23.69
2022-08-11T12:03:05.472Z,23.76
2022-08-11T12:05:34.547Z,23.22
2022-08-11T12:08:18.022Z,24.66
2022-08-11T12:11:11.850Z,25.08
2022-08-11T12:13:43.216Z,25.16
2022-08-11T12:16:33.793Z,25.51
2022-08-11T12:19:00.536Z,23.73
2022-08-11T12:21:28.883Z,22.77
2022-08-11T12:24:16.263Z,23.21
2022-08-11T12:27:02.793Z,23.30
2022-08-11T12:29:41.267Z,22.50
2022-08-11T12:32:10.830Z,23.82
2022-08-11T12:34:37.396Z,23.83
2022-08-11T12:37:13.545Z,23.05
2022-08-11T12:40:43.711Z,22.45
2022-08-11T12:43:22.172Z,22.20
2022-08-11T12:45:58.203Z,21.94
2022-08-11T12:48:58.679Z,22.83
2022-08-11T12:52:13.780Z,21.61
2022-08-11T12:54:57.790Z,21.72
2022-08-11T12:57:58.331Z,21.71
2022-08-11T13:00:45.219Z,21.05
2022-08-11T13:03:31.937Z,21.30
2022-08-11T13:06:03.787Z,23.09
2022-08-11T13:08:33.997Z,23.13
2022-08-11T13:11:20.994Z,22.72
2022-08-11T13:13:54.738Z,21.79
2022-08-11T13:16:26.393Z,22.92
2022-08-11T13:18:53.884Z,22.94
2022-08-11T13:21:21.826Z,22.07
2022-08-11T13:24:01.087Z,22.63
2022-08-11T13:26:43.302Z,23.50
2022-08-11T13:29:17.290Z,22.18
2022-08-11T13:31:44.807Z,22.03
2022-08-11T13:34:12.155Z,21.65
2022-08-11T13:36:39.107Z,21.27
2022-08-11T13:39:05.741Z,22.01
2022-08-11T13:41:39.359Z,21.99
2022-08-11T13:44:12.006Z,20.87
2022-08-11T13:46:39.824Z,21.30
2022-08-11T13:49:11.093Z,21.57
2022-08-11T13:51:40.090Z,21.69
2022-08-11T13:54:11.799Z,20.86
2022-08-11T13:56:42.317Z,20.88
2022-08-11T13:59:09.973Z,21.50
2022-08-11T14:02:20.532Z,22.28
2022-08-11T14:04:33.924Z,22.00
2022-08-11T14:07:05.264Z,21.33
2022-08-11T14:09:37.093Z,21.01
2022-08-11T14:12:28.442Z,20.96
2022-08-11T14:15:08.172Z,20.50
2022-08-11T14:17:48.843Z,20.22
2022-08-11T14:20:38.463Z,20.22
2022-08-11T14:23:05.902Z,20.44
2022-08-11T14:26:00.493Z,21.91
2022-08-11T14:28:30.943Z,21.54
2022-08-11T14:31:05.115Z,20.84
2022-08-11T14:34:00.346Z,22.05
2022-08-11T14:36:23.029Z,21.52
2022-08-11T14:38:50.104Z,22.32
2022-08-11T14:41:37.459Z,22.75
2022-08-11T14:44:43.955Z,20.96
2022-08-11T14:47:23.324Z,21.13
2022-08-11T14:50:09.885Z,21.25
2022-08-11T14:52:40.957Z,21.73
2022-08-11T14:55:27.267Z,22.63
2022-08-11T14:57:57.071Z,21.96
2022-08-11T15:00:24.953Z,20.21
2022-08-11T15:03:11.846Z,20.51
2022-08-11T15:05:57.598Z,22.74
2022-08-11T15:08:49.177Z,20.75
2022-08-11T15:11:39.128Z,21.42
2022-08-11T15:14:08.347Z,20.46
2022-08-11T15:16:55.689Z,20.98
2022-08-11T15:19:25.007Z,21.66
2022-08-11T15:22:10.014Z,20.68
2022-08-11T15:24:37.389Z,20.31
2022-08-11T15:27:32.232Z,21.35
2022-08-11T15:30:33.071Z,20.72
2022-08-11T15:33:24.358Z,21.06
2022-08-11T15:36:11.714Z,20.95
2022-08-11T15:39:09.087Z,20.60
2022-08-11T15:42:33.526Z,21.51
2022-08-11T15:45:22.726Z,21.41
2022-08-11T15:47:57.620Z,21.18
2022-08-11T15:50:38.770Z,20.62
2022-08-11T15:53:31.630Z,20.02
2022-08-11T15:56:00.111Z,20.23
2022-08-11T15:59:33.780Z,21.06
2022-08-11T16:01:58.951Z,20.78
2022-08-11T16:04:30.036Z,20.39
2022-08-11T16:07:11.561Z,21.07
2022-08-11T16:09:48.118Z,22.01
2022-08-11T16:12:23.057Z,20.83
2022-08-11T16:15:20.182Z,20.19
2022-08-11T16:17:52.563Z,21.49
2022-08-11T16:20:21.954Z,21.41
2022-08-11T16:22:57.142Z,21.25
2022-08-11T16:27:04.290Z,20.05
2022-08-11T16:28:21.898Z,21.07
2022-08-11T16:30:49.650Z,21.63
2022-08-11T16:33:49.030Z,21.14
2022-08-11T16:36:24.487Z,20.95
2022-08-11T16:38:52.327Z,20.80
2022-08-11T16:41:41.293Z,20.05
2022-08-11T16:44:37.017Z,20.40
2022-08-11T16:47:06.422Z,20.40
2022-08-11T16:49:43.614Z,21.58
2022-08-11T16:52:19.627Z,21.46
2022-08-11T16:54:47.645Z,21.14
2022-08-11T16:57:44.552Z,21.79
2022-08-11T17:00:15.277Z,20.98
2022-08-11T17:03:12.059Z,21.22
2022-08-11T17:06:10.010Z,20.71
2022-08-11T17:09:03.957Z,20.67
2022-08-11T17:11:55.323Z,20.12
2022-08-11T17:14:35.236Z,20.95
2022-08-11T17:17:05.015Z,20.96
2022-08-11T17:20:40.584Z,21.75
2022-08-11T17:22:41.874Z,20.99
2022-08-11T17:25:09.981Z,22.29
2022-08-11T17:27:38.965Z,21.51
2022-08-11T17:30:11.400Z,21.60
2022-08-11T17:33:07.915Z,21.97
2022-08-11T17:35:38.916Z,21.86
2022-08-11T17:38:17.635Z,22.16
2022-08-11T17:41:22.738Z,22.24
2022-08-11T17:44:10.330Z,22.72
2022-08-11T17:47:00.118Z,22.15
2022-08-11T17:49:37.132Z,22.58
2022-08-11T17:52:26.003Z,21.62
2022-08-11T17:55:13.371Z,22.80
2022-08-11T17:58:00.212Z,21.80
2022-08-11T18:00:26.971Z,22.10
2022-08-11T18:03:13.743Z,22.73
2022-08-11T18:05:44.457Z,22.72
2022-08-11T18:08:32.103Z,22.98
2022-08-11T18:12:06.426Z,23.13
2022-08-11T18:14:27.772Z,22.94
2022-08-11T18:17:13.634Z,23.09
2022-08-11T18:19:59.008Z,22.78
2022-08-11T18:22:48.450Z,22.75
2022-08-11T18:25:43.244Z,23.05
2022-08-11T18:28:33.504Z,23.25
2022-08-11T18:31:22.010Z,23.86
2022-08-11T18:34:11.011Z,23.61
2022-08-11T18:37:09.454Z,24.21
2022-08-11T18:40:11.230Z,23.49
2022-08-11T18:42:59.566Z,22.91
2022-08-11T18:45:46.072Z,23.33
2022-08-11T18:48:39.340Z,23.99
2022-08-11T18:51:30.467Z,25.06
2022-08-11T18:54:27.123Z,24.20
2022-08-11T18:57:14.966Z,24.07
2022-08-11T19:00:02.511Z,24.61
2022-08-11T19:02:50.514Z,24.63
2022-08-11T19:06:35.842Z,24.65
2022-08-11T19:08:50.156Z,24.11
2022-08-11T19:11:42.485Z,24.51
2022-08-11T19:14:30.198Z,23.79
2022-08-11T19:17:44.908Z,24.32
2022-08-11T19:20:27.362Z,24.98
2022-08-11T19:23:15.358Z,24.68
2022-08-11T19:26:03.324Z,24.00
2022-08-11T19:28:49.970Z,24.12
2022-08-11T19:31:36.631Z,24.22
2022-08-11T19:34:24.099Z,24.63
2022-08-11T19:37:11.913Z,24.75
2022-08-11T19:39:59.260Z,24.86
2022-08-11T19:42:46.234Z,24.33
2022-08-11T19:45:31.991Z,25.33
2022-08-11T19:48:32.750Z,25.04
2022-08-11T19:51:19.229Z,25.28
2022-08-11T19:54:07.970Z,25.24
2022-08-11T19:56:53.721Z,26.18
2022-08-11T19:59:40.964Z,26.63
2022-08-11T20:02:26.269Z,26.04
2022-08-11T20:05:11.840Z,26.45
2022-08-11T20:07:57.191Z,26.89
2022-08-11T20:10:45.067Z,26.95
2022-08-11T20:13:32.276Z,27.47
2022-08-11T20:16:18.677Z,27.31
2022-08-11T20:19:04.952Z,28.22
2022-08-11T20:21:50.852Z,28.16
2022-08-11T20:24:37.177Z,27.97
2022-08-11T20:27:24.461Z,27.41
2022-08-11T20:30:12.091Z,28.13
2022-08-11T20:32:59.611Z,28.25
2022-08-11T20:35:45.869Z,28.24
2022-08-11T20:38:33.650Z,27.85
2022-08-11T20:41:20.586Z,28.27
2022-08-11T20:44:09.691Z,28.15
2022-08-11T20:46:57.711Z,28.42
2022-08-11T20:49:51.348Z,28.90
2022-08-11T20:52:44.435Z,28.42
2022-08-11T20:55:51.491Z,29.59
2022-08-11T21:01:46.445Z,29.74
2022-08-11T21:04:33.294Z,30.01
2022-08-11T21:07:28.609Z,29.06
2022-08-11T21:10:22.898Z,29.69
2022-08-11T21:13:26.534Z,29.34
2022-08-11T21:16:26.614Z,29.34
2022-08-11T21:19:59.853Z,28.98
2022-08-11T21:22:59.101Z,29.46
2022-08-11T21:25:50.611Z,29.90
2022-08-11T21:28:37.432Z,30.32
2022-08-11T21:31:25.273Z,30.09
2022-08-11T21:34:11.716Z,30.42
2022-08-11T21:36:59.439Z,30.86
2022-08-11T21:39:45.781Z,31.01
2022-08-11T21:42:32.924Z,30.90
2022-08-11T21:45:20.307Z,32.26
2022-08-11T21:48:06.687Z,32.80
2022-08-11T21:50:51.978Z,33.33
2022-08-11T21:53:38.236Z,32.34
2022-08-11T21:56:27.287Z,31.42
2022-08-11T21:59:14.703Z,32.66
2022-08-11T22:02:00.684Z,34.10
2022-08-11T22:04:46.298Z,32.27
2022-08-11T22:07:32.036Z,32.68
2022-08-11T22:10:40.138Z,32.50
2022-08-11T22:13:28.867Z,33.53
2022-08-11T22:16:14.231Z,33.52
2022-08-11T22:18:59.562Z,34.25
2022-08-11T22:22:02.742Z,34.13
2022-08-11T22:24:52.284Z,34.18
2022-08-11T22:27:39.626Z,33.97
2022-08-11T22:30:27.118Z,34.21
2022-08-11T22:33:15.175Z,33.63
2022-08-11T22:36:02.383Z,33.15
2022-08-11T22:38:49.296Z,33.51
2022-08-11T22:41:34.519Z,33.26
2022-08-11T22:44:19.864Z,32.48
2022-08-11T22:47:05.272Z,31.61
2022-08-11T22:49:57.609Z,32.61
2022-08-11T22:52:45.213Z,33.25
2022-08-11T22:55:31.564Z,31.99
2022-08-11T22:58:17.480Z,32.04
2022-08-11T23:01:02.680Z,32.54
2022-08-11T23:03:48.307Z,32.72
2022-08-11T23:06:34.201Z,32.34
2022-08-11T23:09:20.031Z,32.87
2022-08-11T23:12:10.090Z,33.00
2022-08-11T23:14:57.568Z,33.18
2022-08-11T23:17:43.949Z,33.47
2022-08-11T23:20:34.531Z,33.36
2022-08-11T23:23:28.012Z,33.51
2022-08-11T23:26:14.525Z,34.03
2022-08-11T23:29:05.955Z,34.36
2022-08-11T23:31:54.180Z,34.75
2022-08-11T23:35:04.364Z,35.65
2022-08-11T23:37:48.540Z,35.98
2022-08-11T23:40:33.870Z,36.13
2022-08-11T23:43:19.851Z,36.19
2022-08-11T23:46:04.510Z,36.72
2022-08-11T23:48:50.501Z,37.09
2022-08-11T23:51:40.825Z,38.65
2022-08-11T23:54:27.777Z,37.88
2022-08-11T23:57:13.841Z,36.93
2022-08-11T23:59:59.390Z,37.21
